sensor_id;sensor_type;location;lat;lon;timestamp;P1;durP1;ratioP1;P2;durP2;ratioP2
22468;SDS011;11401;50.792;4.352;2022-07-01T00:02:15;3.78;;;2.13;;
22468;SDS011;11401;50.792;4.352;2022-07-01T00:04:44;3.38;;;2.17;;
22468;SDS011;11401;50.792;4.352;2022-07-01T00:07:44;2.55;;;1.80;;
22468;SDS011;11401;50.792;4.352;2022-07-01T00:10:11;1.73;;;1.63;;
22468;SDS011;11401;50.792;4.352;2022-07-01T00:12:39;2.50;;;2.10;;
22468;SDS011;11401;50.792;4.352;2022-07-01T00:15:06;2.95;;;2.13;;
22468;SDS011;11401;50.792;4.352;2022-07-01T00:17:34;6.63;;;2.03;;
22468;SDS011;11401;50.792;4.352;2022-07-01T00:20:02;4.60;;;2.03;;
22468;SDS011;11401;50.792;4.352;2022-07-01T00:22:30;4.95;;;2.13;;
22468;SDS011;11401;50.792;4.352;2022-07-01T00:24:57;5.47;;;2.03;;
22468;SDS011;11401;50.792;4.352;2022-07-01T00:27:24;1.90;;;1.80;;
22468;SDS011;11401;50.792;4.352;2022-07-01T00:29:51;3.53;;;2.17;;
22468;SDS011;11401;50.792;4.352;2022-07-01T00:32:18;3.13;;;2.03;;
22468;SDS011;11401;50.792;4.352;2022-07-01T00:34:45;3.17;;;2.30;;
22468;SDS011;11401;50.792;4.352;2022-07-01T00:37:12;4.20;;;1.98;;
22468;SDS011;11401;50.792;4.352;2022-07-01T00:39:38;2.28;;;1.88;;
22468;SDS011;11401;50.792;4.352;2022-07-01T00:42:06;2.13;;;1.85;;
22468;SDS011;11401;50.792;4.352;2022-07-01T00:44:33;1.80;;;1.70;;
22468;SDS011;11401;50.792;4.352;2022-07-01T00:47:01;2.00;;;1.80;;
22468;SDS011;11401;50.792;4.352;2022-07-01T00:49:30;2.95;;;1.95;;
22468;SDS011;11401;50.792;4.352;2022-07-01T00:51:58;2.55;;;2.05;;
22468;SDS011;11401;50.792;4.352;2022-07-01T00:54:25;2.45;;;2.13;;
22468;SDS011;11401;50.792;4.352;2022-07-01T00:56:53;4.65;;;1.98;;
22468;SDS011;11401;50.792;4.352;2022-07-01T00:59:20;2.35;;;2.08;;
22468;SDS011;11401;50.792;4.352;2022-07-01T01:01:47;2.40;;;2.20;;
22468;SDS011;11401;50.792;4.352;2022-07-01T01:04:14;1.80;;;1.70;;
22468;SDS011;11401;50.792;4.352;2022-07-01T01:06:41;3.15;;;2.28;;
22468;SDS011;11401;50.792;4.352;2022-07-01T01:09:09;4.53;;;2.65;;
22468;SDS011;11401;50.792;4.352;2022-07-01T01:11:36;3.38;;;2.15;;
22468;SDS011;11401;50.792;4.352;2022-07-01T01:14:03;2.83;;;2.42;;
22468;SDS011;11401;50.792;4.352;2022-07-01T01:16:30;4.18;;;2.83;;
22468;SDS011;11401;50.792;4.352;2022-07-01T01:19:03;3.15;;;2.85;;
22468;SDS011;11401;50.792;4.352;2022-07-01T01:21:33;6.10;;;2.70;;
22468;SDS011;11401;50.792;4.352;2022-07-01T01:24:01;3.28;;;2.53;;
22468;SDS011;11401;50.792;4.352;2022-07-01T01:26:28;6.00;;;2.88;;
22468;SDS011;11401;50.792;4.352;2022-07-01T01:28:57;3.58;;;2.70;;
22468;SDS011;11401;50.792;4.352;2022-07-01T01:31:31;8.65;;;2.97;;
22468;SDS011;11401;50.792;4.352;2022-07-01T01:33:59;3.80;;;2.92;;
22468;SDS011;11401;50.792;4.352;2022-07-01T01:36:27;6.60;;;3.65;;
22468;SDS011;11401;50.792;4.352;2022-07-01T01:38:54;6.25;;;3.35;;
22468;SDS011;11401;50.792;4.352;2022-07-01T01:41:25;4.00;;;3.17;;
22468;SDS011;11401;50.792;4.352;2022-07-01T01:43:52;7.43;;;3.47;;
22468;SDS011;11401;50.792;4.352;2022-07-01T01:46:18;3.80;;;3.33;;
22468;SDS011;11401;50.792;4.352;2022-07-01T01:48:45;4.78;;;3.05;;
22468;SDS011;11401;50.792;4.352;2022-07-01T01:51:13;3.95;;;2.95;;
22468;SDS011;11401;50.792;4.352;2022-07-01T01:53:40;5.40;;;3.22;;
22468;SDS011;11401;50.792;4.352;2022-07-01T01:56:07;4.20;;;3.08;;
22468;SDS011;11401;50.792;4.352;2022-07-01T01:58:34;7.97;;;3.33;;
22468;SDS011;11401;50.792;4.352;2022-07-01T02:01:07;4.20;;;3.25;;
22468;SDS011;11401;50.792;4.352;2022-07-01T02:03:34;4.35;;;3.20;;
22468;SDS011;11401;50.792;4.352;2022-07-01T02:06:01;5.82;;;3.08;;
22468;SDS011;11401;50.792;4.352;2022-07-01T02:08:28;4.57;;;3.47;;
22468;SDS011;11401;50.792;4.352;2022-07-01T02:10:55;5.70;;;3.10;;
22468;SDS011;11401;50.792;4.352;2022-07-01T02:13:28;4.45;;;2.95;;
22468;SDS011;11401;50.792;4.352;2022-07-01T02:15:55;5.32;;;2.60;;
22468;SDS011;11401;50.792;4.352;2022-07-01T02:18:23;4.57;;;2.92;;
22468;SDS011;11401;50.792;4.352;2022-07-01T02:20:50;4.00;;;3.03;;
22468;SDS011;11401;50.792;4.352;2022-07-01T02:23:17;4.20;;;3.05;;
22468;SDS011;11401;50.792;4.352;2022-07-01T02:25:44;7.20;;;3.10;;
22468;SDS011;11401;50.792;4.352;2022-07-01T02:28:12;7.20;;;3.20;;
22468;SDS011;11401;50.792;4.352;2022-07-01T02:30:39;4.35;;;2.50;;
22468;SDS011;11401;50.792;4.352;2022-07-01T02:33:08;3.10;;;2.75;;
22468;SDS011;11401;50.792;4.352;2022-07-01T02:35:36;3.85;;;2.47;;
22468;SDS011;11401;50.792;4.352;2022-07-01T02:38:05;7.68;;;2.83;;
22468;SDS011;11401;50.792;4.352;2022-07-01T02:40:33;4.20;;;2.97;;
22468;SDS011;11401;50.792;4.352;2022-07-01T02:43:03;7.82;;;3.00;;
22468;SDS011;11401;50.792;4.352;2022-07-01T02:45:30;3.80;;;2.33;;
22468;SDS011;11401;50.792;4.352;2022-07-01T02:47:57;7.22;;;3.05;;
22468;SDS011;11401;50.792;4.352;2022-07-01T02:50:24;2.60;;;2.08;;
22468;SDS011;11401;50.792;4.352;2022-07-01T02:52:56;6.25;;;3.20;;
22468;SDS011;11401;50.792;4.352;2022-07-01T02:55:23;2.40;;;2.13;;
22468;SDS011;11401;50.792;4.352;2022-07-01T02:57:50;3.50;;;2.50;;
22468;SDS011;11401;50.792;4.352;2022-07-01T03:00:19;11.13;;;2.72;;
22468;SDS011;11401;50.792;4.352;2022-07-01T03:02:46;7.05;;;2.75;;
22468;SDS011;11401;50.792;4.352;2022-07-01T03:05:14;5.97;;;3.05;;
22468;SDS011;11401;50.792;4.352;2022-07-01T03:07:41;4.00;;;2.88;;
22468;SDS011;11401;50.792;4.352;2022-07-01T03:10:09;4.25;;;2.13;;
22468;SDS011;11401;50.792;4.352;2022-07-01T03:12:36;3.83;;;2.80;;
22468;SDS011;11401;50.792;4.352;2022-07-01T03:15:10;4.22;;;2.28;;
22468;SDS011;11401;50.792;4.352;2022-07-01T03:17:40;4.15;;;2.15;;
22468;SDS011;11401;50.792;4.352;2022-07-01T03:20:13;2.67;;;2.42;;
22468;SDS011;11401;50.792;4.352;2022-07-01T03:22:41;3.53;;;2.30;;
22468;SDS011;11401;50.792;4.352;2022-07-01T03:25:09;5.65;;;2.22;;
22468;SDS011;11401;50.792;4.352;2022-07-01T03:27:36;5.90;;;2.67;;
22468;SDS011;11401;50.792;4.352;2022-07-01T03:30:04;3.65;;;2.40;;
22468;SDS011;11401;50.792;4.352;2022-07-01T03:32:32;4.03;;;2.25;;
22468;SDS011;11401;50.792;4.352;2022-07-01T03:35:00;2.88;;;2.08;;
22468;SDS011;11401;50.792;4.352;2022-07-01T03:37:47;3.42;;;2.22;;
22468;SDS011;11401;50.792;4.352;2022-07-01T03:40:15;5.32;;;1.85;;
22468;SDS011;11401;50.792;4.352;2022-07-01T03:42:42;5.78;;;2.10;;
22468;SDS011;11401;50.792;4.352;2022-07-01T03:45:09;5.07;;;1.98;;
22468;SDS011;11401;50.792;4.352;2022-07-01T03:47:36;4.40;;;2.05;;
22468;SDS011;11401;50.792;4.352;2022-07-01T03:50:03;2.88;;;2.38;;
22468;SDS011;11401;50.792;4.352;2022-07-01T03:52:30;3.05;;;2.03;;
22468;SDS011;11401;50.792;4.352;2022-07-01T03:54:57;4.75;;;2.38;;
22468;SDS011;11401;50.792;4.352;2022-07-01T03:57:24;3.17;;;1.70;;
22468;SDS011;11401;50.792;4.352;2022-07-01T03:59:51;5.13;;;2.10;;
22468;SDS011;11401;50.792;4.352;2022-07-01T04:02:18;3.92;;;1.60;;
22468;SDS011;11401;50.792;4.352;2022-07-01T04:04:45;3.63;;;1.90;;
22468;SDS011;11401;50.792;4.352;2022-07-01T04:07:12;3.38;;;2.10;;
22468;SDS011;11401;50.792;4.352;2022-07-01T04:09:38;4.55;;;1.75;;
22468;SDS011;11401;50.792;4.352;2022-07-01T04:12:05;4.18;;;1.70;;
22468;SDS011;11401;50.792;4.352;2022-07-01T04:14:35;4.30;;;1.90;;
22468;SDS011;11401;50.792;4.352;2022-07-01T04:17:03;2.05;;;1.85;;
22468;SDS011;11401;50.792;4.352;2022-07-01T04:19:30;4.15;;;1.55;;
22468;SDS011;11401;50.792;4.352;2022-07-01T04:21:58;7.80;;;1.80;;
22468;SDS011;11401;50.792;4.352;2022-07-01T04:24:43;5.47;;;2.13;;
22468;SDS011;11401;50.792;4.352;2022-07-01T04:27:10;1.70;;;1.60;;
22468;SDS011;11401;50.792;4.352;2022-07-01T04:29:37;2.85;;;1.60;;
22468;SDS011;11401;50.792;4.352;2022-07-01T04:32:04;4.68;;;1.60;;
22468;SDS011;11401;50.792;4.352;2022-07-01T04:34:31;2.75;;;1.55;;
22468;SDS011;11401;50.792;4.352;2022-07-01T04:36:58;2.63;;;1.70;;
22468;SDS011;11401;50.792;4.352;2022-07-01T04:39:25;2.72;;;1.83;;
22468;SDS011;11401;50.792;4.352;2022-07-01T04:41:52;3.90;;;1.85;;
22468;SDS011;11401;50.792;4.352;2022-07-01T04:44:26;6.63;;;1.67;;
22468;SDS011;11401;50.792;4.352;2022-07-01T04:46:57;2.67;;;1.55;;
22468;SDS011;11401;50.792;4.352;2022-07-01T04:49:24;1.50;;;1.40;;
22468;SDS011;11401;50.792;4.352;2022-07-01T04:51:51;1.77;;;1.67;;
22468;SDS011;11401;50.792;4.352;2022-07-01T04:54:19;2.80;;;1.60;;
22468;SDS011;11401;50.792;4.352;2022-07-01T04:56:46;4.10;;;1.77;;
22468;SDS011;11401;50.792;4.352;2022-07-01T04:59:14;4.88;;;1.85;;
22468;SDS011;11401;50.792;4.352;2022-07-01T05:01:44;3.15;;;1.67;;
22468;SDS011;11401;50.792;4.352;2022-07-01T05:04:15;4.35;;;1.90;;
22468;SDS011;11401;50.792;4.352;2022-07-01T05:06:44;5.50;;;1.20;;
22468;SDS011;11401;50.792;4.352;2022-07-01T05:09:11;2.60;;;1.25;;
22468;SDS011;11401;50.792;4.352;2022-07-01T05:11:39;3.72;;;1.58;;
22468;SDS011;11401;50.792;4.352;2022-07-01T05:14:06;2.08;;;1.58;;
22468;SDS011;11401;50.792;4.352;2022-07-01T05:16:34;1.98;;;1.70;;
22468;SDS011;11401;50.792;4.352;2022-07-01T05:19:02;2.80;;;1.52;;
22468;SDS011;11401;50.792;4.352;2022-07-01T05:21:48;2.15;;;1.58;;
22468;SDS011;11401;50.792;4.352;2022-07-01T05:24:29;2.47;;;1.30;;
22468;SDS011;11401;50.792;4.352;2022-07-01T05:26:57;5.00;;;1.88;;
22468;SDS011;11401;50.792;4.352;2022-07-01T05:29:26;4.07;;;1.50;;
22468;SDS011;11401;50.792;4.352;2022-07-01T05:31:53;2.97;;;1.48;;
22468;SDS011;11401;50.792;4.352;2022-07-01T05:34:20;4.68;;;1.98;;
22468;SDS011;11401;50.792;4.352;2022-07-01T05:36:48;2.38;;;1.65;;
22468;SDS011;11401;50.792;4.352;2022-07-01T05:39:14;2.70;;;1.50;;
22468;SDS011;11401;50.792;4.352;2022-07-01T05:41:42;1.90;;;1.50;;
22468;SDS011;11401;50.792;4.352;2022-07-01T05:44:09;1.80;;;1.40;;
22468;SDS011;11401;50.792;4.352;2022-07-01T05:46:36;3.10;;;1.27;;
22468;SDS011;11401;50.792;4.352;2022-07-01T05:49:03;2.42;;;1.67;;
22468;SDS011;11401;50.792;4.352;2022-07-01T05:51:30;2.97;;;1.50;;
22468;SDS011;11401;50.792;4.352;2022-07-01T05:53:57;3.03;;;1.73;;
22468;SDS011;11401;50.792;4.352;2022-07-01T05:56:25;6.50;;;1.95;;
22468;SDS011;11401;50.792;4.352;2022-07-01T05:58:52;3.05;;;1.80;;
22468;SDS011;11401;50.792;4.352;2022-07-01T06:01:20;2.38;;;1.35;;
22468;SDS011;11401;50.792;4.352;2022-07-01T06:03:48;1.80;;;1.70;;
22468;SDS011;11401;50.792;4.352;2022-07-01T06:06:15;3.03;;;1.70;;
22468;SDS011;11401;50.792;4.352;2022-07-01T06:08:44;4.18;;;1.48;;
22468;SDS011;11401;50.792;4.352;2022-07-01T06:11:11;2.45;;;1.52;;
22468;SDS011;11401;50.792;4.352;2022-07-01T06:13:38;2.25;;;1.75;;
22468;SDS011;11401;50.792;4.352;2022-07-01T06:16:06;3.40;;;1.38;;
22468;SDS011;11401;50.792;4.352;2022-07-01T06:18:33;3.10;;;1.65;;
22468;SDS011;11401;50.792;4.352;2022-07-01T06:21:00;2.25;;;1.48;;
22468;SDS011;11401;50.792;4.352;2022-07-01T06:23:27;5.10;;;1.73;;
22468;SDS011;11401;50.792;4.352;2022-07-01T06:25:54;4.43;;;1.40;;
22468;SDS011;11401;50.792;4.352;2022-07-01T06:28:21;1.98;;;1.60;;
22468;SDS011;11401;50.792;4.352;2022-07-01T06:30:48;1.98;;;1.40;;
22468;SDS011;11401;50.792;4.352;2022-07-01T06:33:15;2.25;;;1.40;;
22468;SDS011;11401;50.792;4.352;2022-07-01T06:35:42;2.65;;;1.80;;
22468;SDS011;11401;50.792;4.352;2022-07-01T06:38:09;4.13;;;1.60;;
22468;SDS011;11401;50.792;4.352;2022-07-01T06:40:36;5.03;;;1.70;;
22468;SDS011;11401;50.792;4.352;2022-07-01T06:43:03;2.50;;;1.65;;
22468;SDS011;11401;50.792;4.352;2022-07-01T06:45:30;3.58;;;1.70;;
22468;SDS011;11401;50.792;4.352;2022-07-01T06:47:57;5.95;;;1.60;;
22468;SDS011;11401;50.792;4.352;2022-07-01T06:50:24;1.83;;;1.40;;
22468;SDS011;11401;50.792;4.352;2022-07-01T06:52:51;4.75;;;1.67;;
22468;SDS011;11401;50.792;4.352;2022-07-01T06:55:18;3.33;;;1.83;;
22468;SDS011;11401;50.792;4.352;2022-07-01T06:57:45;2.75;;;1.52;;
22468;SDS011;11401;50.792;4.352;2022-07-01T07:00:12;6.10;;;1.80;;
22468;SDS011;11401;50.792;4.352;2022-07-01T07:02:39;2.10;;;1.38;;
22468;SDS011;11401;50.792;4.352;2022-07-01T07:05:07;1.42;;;1.30;;
22468;SDS011;11401;50.792;4.352;2022-07-01T07:07:36;2.28;;;1.40;;
22468;SDS011;11401;50.792;4.352;2022-07-01T07:10:03;4.47;;;1.58;;
22468;SDS011;11401;50.792;4.352;2022-07-01T07:12:31;3.67;;;1.30;;
22468;SDS011;11401;50.792;4.352;2022-07-01T07:14:58;5.88;;;1.48;;
22468;SDS011;11401;50.792;4.352;2022-07-01T07:17:25;1.65;;;1.50;;
22468;SDS011;11401;50.792;4.352;2022-07-01T07:19:52;3.35;;;1.65;;
22468;SDS011;11401;50.792;4.352;2022-07-01T07:22:21;4.13;;;1.83;;
22468;SDS011;11401;50.792;4.352;2022-07-01T07:24:49;2.83;;;1.42;;
22468;SDS011;11401;50.792;4.352;2022-07-01T07:27:16;4.20;;;1.55;;
22468;SDS011;11401;50.792;4.352;2022-07-01T07:29:43;2.75;;;1.67;;
22468;SDS011;11401;50.792;4.352;2022-07-01T07:32:10;4.18;;;1.35;;
22468;SDS011;11401;50.792;4.352;2022-07-01T07:34:37;2.72;;;1.27;;
22468;SDS011;11401;50.792;4.352;2022-07-01T07:37:05;2.67;;;1.23;;
22468;SDS011;11401;50.792;4.352;2022-07-01T07:39:32;2.53;;;1.35;;
22468;SDS011;11401;50.792;4.352;2022-07-01T07:41:59;1.80;;;1.13;;
22468;SDS011;11401;50.792;4.352;2022-07-01T07:44:26;1.80;;;1.10;;
22468;SDS011;11401;50.792;4.352;2022-07-01T07:46:54;2.50;;;1.35;;
22468;SDS011;11401;50.792;4.352;2022-07-01T07:49:21;3.22;;;1.33;;
22468;SDS011;11401;50.792;4.352;2022-07-01T07:51:48;5.07;;;1.30;;
22468;SDS011;11401;50.792;4.352;2022-07-01T07:54:15;1.95;;;1.20;;
22468;SDS011;11401;50.792;4.352;2022-07-01T07:56:42;9.27;;;1.95;;
22468;SDS011;11401;50.792;4.352;2022-07-01T07:59:11;8.70;;;2.25;;
22468;SDS011;11401;50.792;4.352;2022-07-01T08:01:38;10.88;;;2.90;;
22468;SDS011;11401;50.792;4.352;2022-07-01T08:04:05;3.33;;;1.70;;
22468;SDS011;11401;50.792;4.352;2022-07-01T08:06:32;7.82;;;1.70;;
22468;SDS011;11401;50.792;4.352;2022-07-01T08:08:59;3.58;;;1.23;;
22468;SDS011;11401;50.792;4.352;2022-07-01T08:11:26;3.53;;;1.20;;
22468;SDS011;11401;50.792;4.352;2022-07-01T08:13:53;3.25;;;1.35;;
22468;SDS011;11401;50.792;4.352;2022-07-01T08:16:20;4.65;;;1.40;;
22468;SDS011;11401;50.792;4.352;2022-07-01T08:18:47;4.88;;;1.35;;
22468;SDS011;11401;50.792;4.352;2022-07-01T08:21:15;5.22;;;1.17;;
22468;SDS011;11401;50.792;4.352;2022-07-01T08:23:42;2.60;;;0.95;;
22468;SDS011;11401;50.792;4.352;2022-07-01T08:26:10;4.80;;;1.20;;
22468;SDS011;11401;50.792;4.352;2022-07-01T08:28:40;2.08;;;1.00;;
22468;SDS011;11401;50.792;4.352;2022-07-01T08:31:07;3.10;;;0.95;;
22468;SDS011;11401;50.792;4.352;2022-07-01T08:33:34;7.30;;;1.67;;
22468;SDS011;11401;50.792;4.352;2022-07-01T08:36:07;3.90;;;1.00;;
22468;SDS011;11401;50.792;4.352;2022-07-01T08:38:35;3.67;;;0.90;;
22468;SDS011;11401;50.792;4.352;2022-07-01T08:41:03;2.78;;;1.13;;
22468;SDS011;11401;50.792;4.352;2022-07-01T08:43:31;2.58;;;0.88;;
22468;SDS011;11401;50.792;4.352;2022-07-01T08:45:58;3.58;;;1.27;;
22468;SDS011;11401;50.792;4.352;2022-07-01T08:48:28;3.33;;;1.00;;
22468;SDS011;11401;50.792;4.352;2022-07-01T08:50:56;3.08;;;1.15;;
22468;SDS011;11401;50.792;4.352;2022-07-01T08:53:23;6.18;;;1.40;;
22468;SDS011;11401;50.792;4.352;2022-07-01T08:55:50;4.97;;;1.33;;
22468;SDS011;11401;50.792;4.352;2022-07-01T08:58:35;4.18;;;1.60;;
22468;SDS011;11401;50.792;4.352;2022-07-01T09:01:13;4.78;;;1.08;;
22468;SDS011;11401;50.792;4.352;2022-07-01T09:03:43;3.15;;;1.27;;
22468;SDS011;11401;50.792;4.352;2022-07-01T09:06:22;3.28;;;1.30;;
22468;SDS011;11401;50.792;4.352;2022-07-01T09:08:52;4.72;;;1.50;;
22468;SDS011;11401;50.792;4.352;2022-07-01T09:11:23;6.07;;;1.02;;
22468;SDS011;11401;50.792;4.352;2022-07-01T09:16:53;3.85;;;1.13;;
22468;SDS011;11401;50.792;4.352;2022-07-01T09:19:25;7.45;;;1.55;;
22468;SDS011;11401;50.792;4.352;2022-07-01T09:21:57;3.13;;;1.38;;
22468;SDS011;11401;50.792;4.352;2022-07-01T09:24:33;5.95;;;1.45;;
22468;SDS011;11401;50.792;4.352;2022-07-01T09:27:06;5.07;;;1.50;;
22468;SDS011;11401;50.792;4.352;2022-07-01T09:29:40;4.22;;;1.40;;
22468;SDS011;11401;50.792;4.352;2022-07-01T09:32:18;4.72;;;1.50;;
22468;SDS011;11401;50.792;4.352;2022-07-01T09:34:48;3.45;;;1.60;;
22468;SDS011;11401;50.792;4.352;2022-07-01T09:37:17;4.90;;;1.35;;
22468;SDS011;11401;50.792;4.352;2022-07-01T09:39:50;2.95;;;1.50;;
22468;SDS011;11401;50.792;4.352;2022-07-01T09:42:18;2.65;;;1.27;;
22468;SDS011;11401;50.792;4.352;2022-07-01T09:44:53;4.32;;;1.30;;
22468;SDS011;11401;50.792;4.352;2022-07-01T09:47:28;5.72;;;1.70;;
22468;SDS011;11401;50.792;4.352;2022-07-01T09:49:56;3.95;;;1.80;;
22468;SDS011;11401;50.792;4.352;2022-07-01T09:52:24;4.63;;;1.70;;
22468;SDS011;11401;50.792;4.352;2022-07-01T09:54:52;2.83;;;1.70;;
22468;SDS011;11401;50.792;4.352;2022-07-01T09:57:20;2.85;;;1.60;;
22468;SDS011;11401;50.792;4.352;2022-07-01T09:59:48;3.40;;;1.60;;
22468;SDS011;11401;50.792;4.352;2022-07-01T10:02:18;2.15;;;1.85;;
22468;SDS011;11401;50.792;4.352;2022-07-01T10:04:47;4.13;;;1.50;;
22468;SDS011;11401;50.792;4.352;2022-07-01T10:15:09;4.30;;;2.35;;
22468;SDS011;11401;50.792;4.352;2022-07-01T10:17:42;2.78;;;1.80;;
22468;SDS011;11401;50.792;4.352;2022-07-01T10:20:12;3.42;;;1.50;;
22468;SDS011;11401;50.792;4.352;2022-07-01T10:22:49;2.63;;;1.75;;
22468;SDS011;11401;50.792;4.352;2022-07-01T10:41:28;5.43;;;2.00;;
22468;SDS011;11401;50.792;4.352;2022-07-01T10:43:58;4.30;;;1.85;;
22468;SDS011;11401;50.792;4.352;2022-07-01T10:46:45;4.30;;;1.52;;
22468;SDS011;11401;50.792;4.352;2022-07-01T10:49:17;2.72;;;1.80;;
22468;SDS011;11401;50.792;4.352;2022-07-01T10:51:55;3.58;;;1.55;;
22468;SDS011;11401;50.792;4.352;2022-07-01T10:59:49;4.75;;;1.80;;
22468;SDS011;11401;50.792;4.352;2022-07-01T11:02:22;3.40;;;1.63;;
22468;SDS011;11401;50.792;4.352;2022-07-01T11:04:57;2.58;;;1.20;;
22468;SDS011;11401;50.792;4.352;2022-07-01T11:07:27;2.22;;;1.50;;
22468;SDS011;11401;50.792;4.352;2022-07-01T11:09:56;3.50;;;1.40;;
22468;SDS011;11401;50.792;4.352;2022-07-01T11:12:24;4.07;;;1.38;;
22468;SDS011;11401;50.792;4.352;2022-07-01T11:14:51;6.72;;;1.70;;
22468;SDS011;11401;50.792;4.352;2022-07-01T11:17:19;5.03;;;1.35;;
22468;SDS011;11401;50.792;4.352;2022-07-01T11:19:51;1.67;;;1.48;;
22468;SDS011;11401;50.792;4.352;2022-07-01T11:22:20;2.70;;;1.33;;
22468;SDS011;11401;50.792;4.352;2022-07-01T11:24:56;4.35;;;1.40;;
22468;SDS011;11401;50.792;4.352;2022-07-01T11:27:27;1.77;;;1.15;;
22468;SDS011;11401;50.792;4.352;2022-07-01T11:29:56;2.45;;;1.00;;
22468;SDS011;11401;50.792;4.352;2022-07-01T11:32:28;2.35;;;1.20;;
22468;SDS011;11401;50.792;4.352;2022-07-01T11:34:57;1.67;;;1.40;;
22468;SDS011;11401;50.792;4.352;2022-07-01T11:37:28;3.10;;;1.25;;
22468;SDS011;11401;50.792;4.352;2022-07-01T11:40:15;2.38;;;1.70;;
22468;SDS011;11401;50.792;4.352;2022-07-01T11:42:44;4.53;;;1.52;;
22468;SDS011;11401;50.792;4.352;2022-07-01T11:45:24;2.75;;;1.40;;
22468;SDS011;11401;50.792;4.352;2022-07-01T11:47:53;2.67;;;1.17;;
22468;SDS011;11401;50.792;4.352;2022-07-01T11:50:20;1.40;;;1.20;;
22468;SDS011;11401;50.792;4.352;2022-07-01T11:52:47;2.08;;;1.30;;
22468;SDS011;11401;50.792;4.352;2022-07-01T11:55:18;2.75;;;1.13;;
22468;SDS011;11401;50.792;4.352;2022-07-01T11:58:03;3.88;;;1.00;;
22468;SDS011;11401;50.792;4.352;2022-07-01T12:00:32;1.75;;;1.13;;
22468;SDS011;11401;50.792;4.352;2022-07-01T12:03:00;2.40;;;0.82;;
22468;SDS011;11401;50.792;4.352;2022-07-01T12:05:27;1.33;;;0.80;;
22468;SDS011;11401;50.792;4.352;2022-07-01T12:07:54;3.15;;;1.25;;
22468;SDS011;11401;50.792;4.352;2022-07-01T12:10:24;1.95;;;0.90;;
22468;SDS011;11401;50.792;4.352;2022-07-01T12:12:52;1.92;;;0.90;;
22468;SDS011;11401;50.792;4.352;2022-07-01T12:15:19;1.67;;;0.80;;
22468;SDS011;11401;50.792;4.352;2022-07-01T12:17:47;2.53;;;1.10;;
22468;SDS011;11401;50.792;4.352;2022-07-01T12:20:14;0.90;;;0.90;;
22468;SDS011;11401;50.792;4.352;2022-07-01T12:22:41;2.25;;;0.90;;
22468;SDS011;11401;50.792;4.352;2022-07-01T12:25:09;0.95;;;0.60;;
22468;SDS011;11401;50.792;4.352;2022-07-01T12:27:39;3.75;;;1.00;;
22468;SDS011;11401;50.792;4.352;2022-07-01T12:30:07;0.95;;;0.70;;
22468;SDS011;11401;50.792;4.352;2022-07-01T12:32:37;0.93;;;0.70;;
22468;SDS011;11401;50.792;4.352;2022-07-01T12:35:08;2.33;;;0.75;;
22468;SDS011;11401;50.792;4.352;2022-07-01T12:37:55;1.60;;;0.98;;
22468;SDS011;11401;50.792;4.352;2022-07-01T12:40:26;1.20;;;0.80;;
22468;SDS011;11401;50.792;4.352;2022-07-01T12:42:56;3.13;;;0.70;;
22468;SDS011;11401;50.792;4.352;2022-07-01T12:45:26;1.13;;;0.80;;
22468;SDS011;11401;50.792;4.352;2022-07-01T12:47:54;1.52;;;0.70;;
22468;SDS011;11401;50.792;4.352;2022-07-01T12:50:27;1.10;;;1.00;;
22468;SDS011;11401;50.792;4.352;2022-07-01T12:53:01;0.80;;;0.68;;
22468;SDS011;11401;50.792;4.352;2022-07-01T12:55:42;1.45;;;0.80;;
22468;SDS011;11401;50.792;4.352;2022-07-01T12:58:12;0.85;;;0.70;;
22468;SDS011;11401;50.792;4.352;2022-07-01T13:00:41;2.65;;;0.90;;
22468;SDS011;11401;50.792;4.352;2022-07-01T13:03:10;4.97;;;0.88;;
22468;SDS011;11401;50.792;4.352;2022-07-01T13:05:38;0.70;;;0.60;;
22468;SDS011;11401;50.792;4.352;2022-07-01T13:08:06;1.15;;;0.80;;
22468;SDS011;11401;50.792;4.352;2022-07-01T13:10:34;15.02;;;1.33;;
22468;SDS011;11401;50.792;4.352;2022-07-01T13:13:02;8.57;;;1.20;;
22468;SDS011;11401;50.792;4.352;2022-07-01T13:15:29;13.85;;;1.70;;
22468;SDS011;11401;50.792;4.352;2022-07-01T13:17:57;11.65;;;2.28;;
22468;SDS011;11401;50.792;4.352;2022-07-01T13:20:24;5.95;;;1.20;;
22468;SDS011;11401;50.792;4.352;2022-07-01T13:22:51;2.75;;;1.10;;
22468;SDS011;11401;50.792;4.352;2022-07-01T13:25:18;6.97;;;1.50;;
22468;SDS011;11401;50.792;4.352;2022-07-01T13:27:46;8.13;;;1.20;;
22468;SDS011;11401;50.792;4.352;2022-07-01T13:30:13;3.17;;;1.10;;
22468;SDS011;11401;50.792;4.352;2022-07-01T13:32:42;3.58;;;1.17;;
22468;SDS011;11401;50.792;4.352;2022-07-01T13:35:11;6.63;;;1.25;;
22468;SDS011;11401;50.792;4.352;2022-07-01T13:37:39;7.20;;;0.98;;
22468;SDS011;11401;50.792;4.352;2022-07-01T13:40:06;8.63;;;1.50;;
22468;SDS011;11401;50.792;4.352;2022-07-01T13:42:34;6.00;;;1.17;;
22468;SDS011;11401;50.792;4.352;2022-07-01T13:45:01;3.38;;;1.05;;
22468;SDS011;11401;50.792;4.352;2022-07-01T13:47:28;2.47;;;0.80;;
22468;SDS011;11401;50.792;4.352;2022-07-01T13:49:56;3.08;;;1.23;;
22468;SDS011;11401;50.792;4.352;2022-07-01T13:52:23;2.05;;;0.90;;
22468;SDS011;11401;50.792;4.352;2022-07-01T13:54:50;1.65;;;0.90;;
22468;SDS011;11401;50.792;4.352;2022-07-01T13:57:17;1.90;;;0.85;;
22468;SDS011;11401;50.792;4.352;2022-07-01T13:59:44;1.38;;;0.70;;
22468;SDS011;11401;50.792;4.352;2022-07-01T14:02:12;3.17;;;1.10;;
22468;SDS011;11401;50.792;4.352;2022-07-01T14:04:39;2.08;;;1.00;;
22468;SDS011;11401;50.792;4.352;2022-07-01T14:07:06;4.20;;;1.02;;
22468;SDS011;11401;50.792;4.352;2022-07-01T14:09:33;3.45;;;1.10;;
22468;SDS011;11401;50.792;4.352;2022-07-01T14:12:01;2.60;;;0.80;;
22468;SDS011;11401;50.792;4.352;2022-07-01T14:14:29;3.28;;;0.77;;
22468;SDS011;11401;50.792;4.352;2022-07-01T14:16:56;1.27;;;0.90;;
22468;SDS011;11401;50.792;4.352;2022-07-01T14:19:24;2.10;;;0.90;;
22468;SDS011;11401;50.792;4.352;2022-07-01T14:21:50;3.85;;;0.80;;
22468;SDS011;11401;50.792;4.352;2022-07-01T14:24:17;2.22;;;0.93;;
22468;SDS011;11401;50.792;4.352;2022-07-01T14:26:45;2.95;;;0.82;;
22468;SDS011;11401;50.792;4.352;2022-07-01T14:29:11;1.58;;;1.10;;
22468;SDS011;11401;50.792;4.352;2022-07-01T14:31:39;1.92;;;1.08;;
22468;SDS011;11401;50.792;4.352;2022-07-01T14:34:06;1.90;;;1.00;;
22468;SDS011;11401;50.792;4.352;2022-07-01T14:36:33;2.05;;;1.35;;
22468;SDS011;11401;50.792;4.352;2022-07-01T14:39:00;5.25;;;1.20;;
22468;SDS011;11401;50.792;4.352;2022-07-01T14:41:27;1.45;;;1.05;;
22468;SDS011;11401;50.792;4.352;2022-07-01T14:43:54;1.98;;;1.00;;
22468;SDS011;11401;50.792;4.352;2022-07-01T14:46:21;2.83;;;1.40;;
22468;SDS011;11401;50.792;4.352;2022-07-01T14:48:48;1.13;;;1.05;;
22468;SDS011;11401;50.792;4.352;2022-07-01T14:51:15;1.70;;;1.00;;
22468;SDS011;11401;50.792;4.352;2022-07-01T14:53:42;2.42;;;1.10;;
22468;SDS011;11401;50.792;4.352;2022-07-01T14:56:11;4.80;;;1.05;;
22468;SDS011;11401;50.792;4.352;2022-07-01T14:58:38;4.97;;;1.08;;
22468;SDS011;11401;50.792;4.352;2022-07-01T15:01:11;3.20;;;1.20;;
22468;SDS011;11401;50.792;4.352;2022-07-01T15:03:38;2.70;;;1.83;;
22468;SDS011;11401;50.792;4.352;2022-07-01T15:06:05;6.00;;;2.30;;
22468;SDS011;11401;50.792;4.352;2022-07-01T15:08:32;6.57;;;1.40;;
22468;SDS011;11401;50.792;4.352;2022-07-01T15:10:59;2.40;;;1.33;;
22468;SDS011;11401;50.792;4.352;2022-07-01T15:13:29;4.57;;;1.05;;
22468;SDS011;11401;50.792;4.352;2022-07-01T15:16:02;3.20;;;1.02;;
22468;SDS011;11401;50.792;4.352;2022-07-01T15:18:30;3.17;;;0.95;;
22468;SDS011;11401;50.792;4.352;2022-07-01T15:20:59;1.55;;;0.80;;
22468;SDS011;11401;50.792;4.352;2022-07-01T15:23:27;4.50;;;0.95;;
22468;SDS011;11401;50.792;4.352;2022-07-01T15:25:56;1.35;;;0.93;;
22468;SDS011;11401;50.792;4.352;2022-07-01T15:28:23;2.63;;;0.90;;
22468;SDS011;11401;50.792;4.352;2022-07-01T15:30:51;3.90;;;1.05;;